Little Valley, New York
Current Conditions -  °F | °C
As of 4:35 AM on Thursday 27 Nov 2014 (Local Time) from KOLE Reporting Station
Overcast Overcast  
Wind Chill: 17°   Ceiling: 1400
Heat Index: 23°   Visibility: 10mi
Dew Point: 23°   Wind: 5mph
Humidity: 100%   Direction: 20°NNE
Pressure: 29.94"   Gusts: NA
Location:  42.25°N, 78.81°W
Report Text: KOLE 270935Z AUTO 02004KT 10SM BKN014 OVC022 M05/M05 A2994 RMK AO2
Loading
Personal Weather Stations






























Interactive Weather Map New forecast layout! Learn more

10-Day Weather Forecast

Advertisements
Track Severe Weather on mobile